EGMC Airport Information

Runway Information
Runway 06 Length 5023 ft width 121 ft
Elevation 49 ft Threshold 571 ft Heading 54
Runway 24 Length 5023 ft Width 121 ft
Elevation 37 ft Threshold 479 ft Heading 234
Airport Frequencies
Type APP Name APP Frequency 130.775 MHZ
Type ATIS Name ATIS Frequency 121.8 MHZ
Type RDR Name RDR Frequency 130.775 MHZ
Type TWR Name TWR Frequency 127.725 MHZ
Airport Navaids
Airport Weather Information & NOTAM
ADDS - METARS form results

(1813 UTC 24 May 2022)
Data provider http://aviationweather.gov/metar/data/
 
METAR text: EGMC 241750Z 20011KT 9999 FEW020 FEW042CB 15/09 Q1009
Conditions at: EGMC (SOUTHEND-ON-SEA , GB) observed 1750 UTC 24 May 2022
Temperature: 15.0°C (59°F)
Dewpoint: 9.0°C (48°F) [RH = 67%]
Pressure (altimeter): 29.79 inches Hg (1009.0 mb)
Winds: from the SSW (200 degrees) at 13 MPH (11 knots; 5.7 m/s)
Visibility: 6 or more miles (10+ km)
Ceiling: at least 12,000 feet AGL
Clouds: few clouds at 2000 feet AGL
few clouds at 4200 feet AGL
Weather: no significant weather observed at this time

METAR text: EGMC 241720Z 22014KT 9999 VCTS FEW020 FEW042CB 14/08 Q1008
Conditions at: EGMC (SOUTHEND-ON-SEA , GB) observed 1720 UTC 24 May 2022
Temperature: 14.0°C (57°F)
Dewpoint: 8.0°C (46°F) [RH = 67%]
Pressure (altimeter): 29.76 inches Hg (1008.0 mb)
Winds: from the SW (220 degrees) at 16 MPH (14 knots; 7.2 m/s)
Visibility: 6 or more miles (10+ km)
Ceiling: at least 12,000 feet AGL
Clouds: few clouds at 2000 feet AGL
few clouds at 4200 feet AGL
Weather: VCTS  (thunderstorm in vicinity)

Forecast for: AMD
Text: TAF AMD EGMC 241749Z 2418/2503 22006KT 9999 SCT035
Forecast period: 1800 UTC 24 May 2022 to 0300 UTC 25 May 2022
Forecast type: FROM: standard forecast or significant change
Winds: from the SW (220 degrees) at 7 MPH (6 knots; 3.1 m/s)
Visibility: 6 or more miles (10+ km)
Ceiling: at least 12,000 feet AGL
Clouds: scattered clouds at 3500 feet AGL
Weather: no significant weather forecast for this period
Text: PROB30
Forecast period: 1800 to 1900 UTC 24 May 2022
Forecast type: TEMPORARY: The following changes expected for less than half the time period
Visibility: 5 miles (8 km)
Ceiling: unknown
Clouds: missing
Weather: SHRA  (rain showers)